createdAt,value
2023-01-08T00:00:34.109Z,637.91
2023-01-08T00:03:41.807Z,624.33
2023-01-08T00:06:48.946Z,630.83
2023-01-08T00:09:55.225Z,639.67
2023-01-08T00:13:02.144Z,624.32
2023-01-08T00:16:14.834Z,635.56
2023-01-08T00:19:21.877Z,615.92
2023-01-08T00:22:27.834Z,605.40
2023-01-08T00:25:35.838Z,597.94
2023-01-08T00:28:43.807Z,580.06
2023-01-08T00:31:53.314Z,570.66
2023-01-08T00:34:59.457Z,559.91
2023-01-08T00:38:06.290Z,547.35
2023-01-08T00:41:13.023Z,542.58
2023-01-08T00:44:19.913Z,535.02
2023-01-08T00:47:28.714Z,536.00
2023-01-08T00:50:35.649Z,534.35
2023-01-08T00:53:41.753Z,527.57
2023-01-08T00:56:48.931Z,526.25
2023-01-08T00:59:54.974Z,533.67
2023-01-08T01:03:04.620Z,537.02
2023-01-08T01:06:12.249Z,535.76
2023-01-08T01:09:19.195Z,530.48
2023-01-08T01:12:25.308Z,544.13
2023-01-08T01:15:32.208Z,550.61
2023-01-08T01:18:41.024Z,546.91
2023-01-08T01:21:48.665Z,561.86
2023-01-08T01:24:54.686Z,544.72
2023-01-08T01:28:01.582Z,540.16
2023-01-08T01:31:07.931Z,551.01
2023-01-08T01:34:17.746Z,550.38
2023-01-08T01:37:23.771Z,538.23
2023-01-08T01:40:30.628Z,532.31
2023-01-08T01:43:44.156Z,525.25
2023-01-08T01:46:53.491Z,526.56
2023-01-08T01:50:10.777Z,530.41
2023-01-08T01:53:27.612Z,527.94
2023-01-08T01:56:37.091Z,526.35
2023-01-08T01:59:47.436Z,528.19
2023-01-08T02:02:55.146Z,531.31
2023-01-08T02:06:20.634Z,534.02
2023-01-08T02:09:45.228Z,536.62
2023-01-08T02:13:03.261Z,535.10
2023-01-08T02:16:21.936Z,524.12
2023-01-08T02:19:48.913Z,521.79
2023-01-08T02:23:24.067Z,532.48
2023-01-08T02:26:37.584Z,541.90
2023-01-08T02:29:45.063Z,520.03
2023-01-08T02:32:52.032Z,530.62
2023-01-08T02:36:37.473Z,537.37
2023-01-08T02:40:13.909Z,535.27
2023-01-08T02:43:38.192Z,536.61
2023-01-08T02:46:47.039Z,524.07
2023-01-08T02:50:07.447Z,518.13
2023-01-08T02:53:21.244Z,532.92
2023-01-08T02:56:34.147Z,519.94
2023-01-08T02:59:48.033Z,518.29
2023-01-08T03:03:06.715Z,511.08
2023-01-08T03:06:20.425Z,490.57
2023-01-08T03:09:27.439Z,479.20
2023-01-08T03:12:52.100Z,481.85
2023-01-08T03:16:09.915Z,484.53
2023-01-08T03:19:25.222Z,482.05
2023-01-08T03:22:35.547Z,480.58
2023-01-08T03:25:50.554Z,481.13
2023-01-08T03:29:01.040Z,465.55
2023-01-08T03:32:19.125Z,472.25
2023-01-08T03:35:30.439Z,474.34
2023-01-08T03:38:47.036Z,468.92
2023-01-08T03:41:57.595Z,451.48
2023-01-08T03:45:05.603Z,455.40
2023-01-08T03:48:15.284Z,451.46
2023-01-08T03:51:22.227Z,449.95
2023-01-08T03:54:35.400Z,441.05
2023-01-08T03:57:42.269Z,442.05
2023-01-08T04:00:48.431Z,455.07
2023-01-08T04:03:57.923Z,464.60
2023-01-08T04:07:03.892Z,473.37
2023-01-08T04:10:11.665Z,474.60
2023-01-08T04:13:17.784Z,481.68
2023-01-08T04:16:24.920Z,506.33
2023-01-08T04:19:33.655Z,529.90
2023-01-08T04:22:40.731Z,555.09
2023-01-08T04:25:46.772Z,539.86
2023-01-08T04:28:53.699Z,490.57
2023-01-08T04:31:59.817Z,456.55
2023-01-08T04:35:10.279Z,475.73
2023-01-08T04:38:16.229Z,501.08
2023-01-08T04:41:23.075Z,492.41
2023-01-08T04:44:29.270Z,466.93
2023-01-08T04:47:36.399Z,420.85
2023-01-08T04:50:45.042Z,443.76
2023-01-08T04:53:52.026Z,440.51
2023-01-08T04:56:58.106Z,432.52
2023-01-08T05:00:04.945Z,417.80
2023-01-08T05:03:11.183Z,420.32
2023-01-08T05:06:20.788Z,415.00
2023-01-08T05:09:26.898Z,425.67
2023-01-08T05:12:33.764Z,418.06
2023-01-08T05:15:39.819Z,463.70
2023-01-08T05:18:47.212Z,437.93
2023-01-08T05:21:55.991Z,455.93
2023-01-08T05:25:02.904Z,453.71
2023-01-08T05:28:08.934Z,421.84
2023-01-08T05:31:17.799Z,405.61
2023-01-08T05:34:24.034Z,395.12
2023-01-08T05:37:33.503Z,394.03
2023-01-08T05:40:39.695Z,372.16
2023-01-08T05:43:46.710Z,371.36
2023-01-08T05:46:52.924Z,372.01
2023-01-08T05:49:59.853Z,374.84
2023-01-08T05:53:10.434Z,359.50
2023-01-08T05:56:17.573Z,355.00
2023-01-08T05:59:24.951Z,355.01
2023-01-08T06:02:31.896Z,365.78
2023-01-08T06:05:38.050Z,372.13
2023-01-08T06:08:47.604Z,365.84
2023-01-08T06:11:54.084Z,361.03
2023-01-08T06:15:01.103Z,362.29
2023-01-08T06:18:07.802Z,356.96
2023-01-08T06:21:15.423Z,350.51
2023-01-08T06:24:24.143Z,341.65
2023-01-08T06:27:31.006Z,336.57
2023-01-08T06:30:37.067Z,341.45
2023-01-08T06:33:44.085Z,345.68
2023-01-08T06:36:51.539Z,342.71
2023-01-08T06:40:01.054Z,347.30
2023-01-08T06:43:08.550Z,350.75
2023-01-08T06:46:15.504Z,368.90
2023-01-08T06:49:22.444Z,438.82
2023-01-08T06:52:29.596Z,439.19
2023-01-08T06:55:38.459Z,433.15
2023-01-08T06:58:45.304Z,401.01
2023-01-08T07:01:52.055Z,378.59
2023-01-08T07:04:59.032Z,382.94
2023-01-08T07:08:05.162Z,425.77
2023-01-08T07:11:15.716Z,423.33
2023-01-08T07:14:21.971Z,417.01
2023-01-08T07:17:29.018Z,406.67
2023-01-08T07:20:35.318Z,369.14
2023-01-08T07:23:42.251Z,336.18
2023-01-08T07:26:50.913Z,319.07
2023-01-08T07:29:57.871Z,320.31
2023-01-08T07:33:04.142Z,341.43
2023-01-08T07:36:12.583Z,381.98
2023-01-08T07:39:18.755Z,345.84
2023-01-08T07:42:29.529Z,330.67
2023-01-08T07:45:35.804Z,334.12
2023-01-08T07:48:42.724Z,315.16
2023-01-08T07:51:48.927Z,320.81
2023-01-08T07:54:56.128Z,328.22
2023-01-08T07:58:09.695Z,320.77
2023-01-08T08:01:17.476Z,300.24
2023-01-08T08:04:24.663Z,297.07
2023-01-08T08:07:34.863Z,287.65
2023-01-08T08:10:41.591Z,293.07
2023-01-08T08:13:55.952Z,301.63
2023-01-08T08:17:04.238Z,281.82
2023-01-08T08:20:13.390Z,275.44
2023-01-08T08:23:19.870Z,276.37
2023-01-08T08:26:27.629Z,282.54
2023-01-08T08:29:37.659Z,304.21
2023-01-08T08:32:45.231Z,369.22
2023-01-08T08:35:53.466Z,393.14
2023-01-08T08:39:00.514Z,407.55
2023-01-08T08:42:06.913Z,408.87
2023-01-08T08:45:17.148Z,407.71
2023-01-08T08:48:23.374Z,381.22
2023-01-08T08:51:31.029Z,390.66
2023-01-08T08:54:38.883Z,384.59
2023-01-08T08:57:46.827Z,399.59
2023-01-08T09:00:55.577Z,395.58
2023-01-08T09:04:02.915Z,397.69
2023-01-08T09:07:09.370Z,398.36
2023-01-08T09:10:16.638Z,388.73
2023-01-08T09:13:23.664Z,384.41
2023-01-08T09:16:33.474Z,375.80
2023-01-08T09:19:39.778Z,330.98
2023-01-08T09:22:46.768Z,341.45
2023-01-08T09:25:52.916Z,329.09
2023-01-08T09:29:01.086Z,314.86
2023-01-08T09:32:12.915Z,313.68
2023-01-08T09:35:20.258Z,326.72
2023-01-08T09:38:29.538Z,340.72
2023-01-08T09:41:42.633Z,354.57
2023-01-08T09:44:54.884Z,375.58
2023-01-08T09:48:14.308Z,389.14
2023-01-08T09:51:23.927Z,387.10
2023-01-08T09:54:31.106Z,383.06
2023-01-08T09:57:37.504Z,364.31
2023-01-08T10:00:44.893Z,348.59
2023-01-08T10:04:03.126Z,370.68
2023-01-08T10:07:22.183Z,369.62
2023-01-08T10:10:33.930Z,378.99
2023-01-08T10:13:47.800Z,360.09
2023-01-08T10:17:04.343Z,364.74
2023-01-08T10:20:21.491Z,358.55
2023-01-08T10:23:27.992Z,351.35
2023-01-08T10:26:38.147Z,356.09
2023-01-08T10:29:44.426Z,392.38
2023-01-08T10:32:56.653Z,392.99
2023-01-08T10:36:13.013Z,419.85
2023-01-08T10:39:28.793Z,386.92
2023-01-08T10:42:39.894Z,365.82
2023-01-08T10:46:00.665Z,362.27
2023-01-08T10:49:10.973Z,371.08
2023-01-08T10:52:36.456Z,398.67
2023-01-08T10:55:42.628Z,466.26
2023-01-08T10:58:49.631Z,501.39
2023-01-08T11:02:00.008Z,493.14
2023-01-08T11:05:11.735Z,496.73
2023-01-08T11:08:25.187Z,486.90
2023-01-08T11:11:39.112Z,508.03
2023-01-08T11:14:51.736Z,499.59
2023-01-08T11:18:08.076Z,481.35
2023-01-08T11:21:26.285Z,610.93
2023-01-08T11:24:40.570Z,527.75
2023-01-08T11:27:49.867Z,493.98
2023-01-08T11:31:14.896Z,507.42
2023-01-08T11:34:41.022Z,487.53
2023-01-08T11:37:55.655Z,475.00
2023-01-08T11:41:29.964Z,435.66
2023-01-08T11:44:54.254Z,438.09
2023-01-08T11:48:30.195Z,445.32
2023-01-08T11:51:58.272Z,432.75
2023-01-08T11:55:27.311Z,434.63
2023-01-08T11:58:59.135Z,425.40
2023-01-08T12:02:24.674Z,441.06
2023-01-08T12:05:45.313Z,444.43
2023-01-08T12:09:14.083Z,396.67
2023-01-08T12:12:43.021Z,348.36
2023-01-08T12:16:09.711Z,278.30
2023-01-08T12:19:42.651Z,225.50
2023-01-08T12:23:08.257Z,204.69
2023-01-08T12:26:27.334Z,207.13
2023-01-08T12:30:01.890Z,217.12
2023-01-08T12:33:35.390Z,223.16
2023-01-08T12:36:51.675Z,209.47
2023-01-08T12:40:07.879Z,215.33
2023-01-08T12:43:23.132Z,230.97
2023-01-08T12:46:36.645Z,253.27
2023-01-08T12:49:57.435Z,252.42
2023-01-08T12:53:17.759Z,267.20
2023-01-08T12:56:38.612Z,268.36
2023-01-08T12:59:59.221Z,265.27
2023-01-08T13:03:15.189Z,254.77
2023-01-08T13:06:26.616Z,338.18
2023-01-08T13:09:35.702Z,327.58
2023-01-08T13:12:44.715Z,297.82
2023-01-08T13:15:50.928Z,274.87
2023-01-08T13:19:01.817Z,251.45
2023-01-08T13:22:30.288Z,259.71
2023-01-08T13:25:40.189Z,245.40
2023-01-08T13:28:48.837Z,239.30
2023-01-08T13:31:56.891Z,267.09
2023-01-08T13:35:25.572Z,262.00
2023-01-08T13:38:35.157Z,263.57
2023-01-08T13:41:48.889Z,278.62
2023-01-08T13:45:03.734Z,277.70
2023-01-08T13:48:23.191Z,290.01
2023-01-08T13:51:45.587Z,299.20
2023-01-08T13:54:57.203Z,299.43
2023-01-08T13:58:13.440Z,305.68
2023-01-08T14:01:20.160Z,299.97
2023-01-08T14:04:27.819Z,309.36
2023-01-08T14:07:33.938Z,342.10
2023-01-08T14:10:43.535Z,394.22
2023-01-08T14:13:50.855Z,449.54
2023-01-08T14:16:59.191Z,679.70
2023-01-08T14:20:12.266Z,868.35
2023-01-08T14:23:29.503Z,641.10
2023-01-08T14:26:41.595Z,742.21
2023-01-08T14:29:49.075Z,658.49
2023-01-08T14:32:57.776Z,640.04
2023-01-08T14:36:09.610Z,749.09
2023-01-08T14:39:16.221Z,581.68
2023-01-08T14:42:50.324Z,478.09
2023-01-08T14:46:00.143Z,579.34
2023-01-08T14:49:07.205Z,520.01
2023-01-08T14:52:18.719Z,515.11
2023-01-08T14:55:27.684Z,556.06
2023-01-08T14:58:42.292Z,622.78
2023-01-08T15:01:58.844Z,484.44
2023-01-08T15:05:21.478Z,490.52
2023-01-08T15:08:37.822Z,488.27
2023-01-08T15:11:58.975Z,482.41
2023-01-08T15:15:27.532Z,460.67
2023-01-08T15:18:34.629Z,460.29
2023-01-08T15:21:48.571Z,447.17
2023-01-08T15:25:03.119Z,552.33
2023-01-08T15:28:17.746Z,892.89
2023-01-08T15:31:33.621Z,839.20
2023-01-08T15:34:40.662Z,1010.73
2023-01-08T15:37:49.345Z,1016.08
2023-01-08T15:40:58.080Z,717.61
2023-01-08T15:44:01.779Z,1049.05
2023-01-08T15:47:12.136Z,1188.21
2023-01-08T15:50:20.717Z,764.17
2023-01-08T15:53:27.976Z,654.52
2023-01-08T15:56:34.164Z,624.14
2023-01-08T15:59:41.145Z,609.57
2023-01-08T16:02:53.379Z,565.70
2023-01-08T16:06:00.681Z,859.78
2023-01-08T16:09:07.267Z,824.87
2023-01-08T16:12:14.264Z,882.26
2023-01-08T16:15:21.079Z,989.82
2023-01-08T16:18:32.157Z,900.05
2023-01-08T16:21:39.037Z,675.25
2023-01-08T16:24:46.041Z,601.14
2023-01-08T16:27:52.259Z,517.31
2023-01-08T16:30:59.339Z,527.75
2023-01-08T16:34:09.599Z,567.54
2023-01-08T16:37:16.858Z,565.85
2023-01-08T16:40:23.157Z,543.64
2023-01-08T16:43:32.789Z,558.72
2023-01-08T16:46:38.899Z,551.76
2023-01-08T16:49:50.593Z,579.51
2023-01-08T16:52:56.709Z,559.94
2023-01-08T16:56:03.776Z,617.35
2023-01-08T16:59:22.338Z,762.09
2023-01-08T17:02:30.298Z,729.80
2023-01-08T17:05:40.268Z,648.33
2023-01-08T17:08:47.258Z,628.16
2023-01-08T17:11:53.596Z,826.40
2023-01-08T17:15:00.646Z,826.09
2023-01-08T17:18:07.450Z,727.11
2023-01-08T17:21:18.418Z,823.80
2023-01-08T17:24:24.655Z,1235.54
2023-01-08T17:27:31.754Z,1060.60
2023-01-08T17:30:37.980Z,1031.06
2023-01-08T17:33:45.556Z,961.93
2023-01-08T17:36:54.311Z,1083.16
2023-01-08T17:40:02.507Z,1339.38
2023-01-08T17:43:08.768Z,984.72
2023-01-08T17:46:15.899Z,934.64
2023-01-08T17:49:22.177Z,917.11
2023-01-08T17:52:31.924Z,836.08
2023-01-08T17:55:39.103Z,834.71
2023-01-08T17:58:46.118Z,822.17
2023-01-08T18:01:55.185Z,791.75
2023-01-08T18:05:02.152Z,722.13
2023-01-08T18:08:11.025Z,762.18
2023-01-08T18:11:18.330Z,812.79
2023-01-08T18:14:24.998Z,694.60
2023-01-08T18:17:33.437Z,669.98
2023-01-08T18:20:43.118Z,695.68
2023-01-08T18:23:52.833Z,713.43
2023-01-08T18:26:59.331Z,875.46
2023-01-08T18:30:07.099Z,796.36
2023-01-08T18:33:13.356Z,705.42
2023-01-08T18:36:20.956Z,646.05
2023-01-08T18:39:31.151Z,649.37
2023-01-08T18:42:38.079Z,647.23
2023-01-08T18:45:44.383Z,650.05
2023-01-08T18:48:51.418Z,597.01
2023-01-08T18:51:57.473Z,547.77
2023-01-08T18:55:07.729Z,597.53
2023-01-08T18:58:14.159Z,542.68
2023-01-08T19:01:21.511Z,555.98
2023-01-08T19:04:28.669Z,588.62
2023-01-08T19:07:36.247Z,653.61
2023-01-08T19:10:45.091Z,667.69
2023-01-08T19:13:52.143Z,656.64
2023-01-08T19:16:58.621Z,642.05
2023-01-08T19:20:07.062Z,607.81
2023-01-08T19:23:14.013Z,659.94
2023-01-08T19:26:23.864Z,772.74
2023-01-08T19:29:30.029Z,723.72
2023-01-08T19:32:38.663Z,701.50
2023-01-08T19:35:47.338Z,649.49
2023-01-08T19:38:54.820Z,761.69
2023-01-08T19:42:16.545Z,758.41
2023-01-08T19:45:23.493Z,715.89
2023-01-08T19:48:30.727Z,779.72
2023-01-08T19:51:38.592Z,813.67
2023-01-08T19:54:46.401Z,788.98
2023-01-08T19:57:57.789Z,664.31
2023-01-08T20:01:05.967Z,686.20
2023-01-08T20:04:14.344Z,724.66
2023-01-08T20:07:21.785Z,788.62
2023-01-08T20:10:29.250Z,801.38
2023-01-08T20:13:39.125Z,718.32
2023-01-08T20:16:47.935Z,707.27
2023-01-08T20:19:54.995Z,721.89
2023-01-08T20:23:03.574Z,720.50
2023-01-08T20:26:16.637Z,731.13
2023-01-08T20:29:27.605Z,718.22
2023-01-08T20:32:34.604Z,718.98
2023-01-08T20:35:42.400Z,723.25
2023-01-08T20:38:50.200Z,718.07
2023-01-08T20:42:04.301Z,770.88
2023-01-08T20:45:15.808Z,707.67
2023-01-08T20:48:25.328Z,644.33
2023-01-08T20:51:32.996Z,592.71
2023-01-08T20:54:40.352Z,579.28
2023-01-08T20:57:46.581Z,564.91
2023-01-08T21:00:56.379Z,551.59
2023-01-08T21:04:04.061Z,556.49
2023-01-08T21:07:12.244Z,583.71
2023-01-08T21:10:19.955Z,565.56
2023-01-08T21:13:29.987Z,540.62
2023-01-08T21:16:41.718Z,572.15
2023-01-08T21:19:49.025Z,632.53
2023-01-08T21:22:56.463Z,684.54
2023-01-08T21:26:07.529Z,700.08
2023-01-08T21:29:15.024Z,709.19
2023-01-08T21:32:24.534Z,722.03
2023-01-08T21:35:30.720Z,719.25
2023-01-08T21:38:37.996Z,749.01
2023-01-08T21:41:56.403Z,744.77
2023-01-08T21:45:15.708Z,698.26
2023-01-08T21:48:24.527Z,670.53
2023-01-08T21:51:43.823Z,649.75
2023-01-08T21:54:50.436Z,653.78
2023-01-08T21:57:57.363Z,654.27
2023-01-08T22:01:03.635Z,664.92
2023-01-08T22:04:13.605Z,659.97
2023-01-08T22:07:20.245Z,700.50
2023-01-08T22:10:27.256Z,717.92
2023-01-08T22:13:34.584Z,732.96
2023-01-08T22:16:41.709Z,693.84
2023-01-08T22:19:50.395Z,682.11
2023-01-08T22:22:57.338Z,664.14
2023-01-08T22:26:07.692Z,672.20
2023-01-08T22:29:14.615Z,676.32
2023-01-08T22:32:20.827Z,769.32
2023-01-08T22:35:30.375Z,774.11
2023-01-08T22:38:37.755Z,772.06
2023-01-08T22:41:44.783Z,723.81
2023-01-08T22:44:52.866Z,705.29
2023-01-08T22:48:00.353Z,708.49
2023-01-08T22:51:09.599Z,683.25
2023-01-08T22:54:18.313Z,676.41
2023-01-08T22:57:24.398Z,658.57
2023-01-08T23:00:31.306Z,637.92
2023-01-08T23:03:37.332Z,626.06
2023-01-08T23:06:46.845Z,595.20
2023-01-08T23:09:53.092Z,574.24
2023-01-08T23:13:00.236Z,579.00
2023-01-08T23:16:07.327Z,603.28
2023-01-08T23:19:14.720Z,631.62
2023-01-08T23:22:23.495Z,581.13
2023-01-08T23:25:32.253Z,547.48
2023-01-08T23:28:39.019Z,543.72
2023-01-08T23:31:45.937Z,535.68
2023-01-08T23:34:52.441Z,561.03
2023-01-08T23:38:01.918Z,587.59
2023-01-08T23:41:10.418Z,626.53
2023-01-08T23:44:18.984Z,675.50
2023-01-08T23:47:25.269Z,673.51
2023-01-08T23:50:32.201Z,660.28
2023-01-08T23:53:40.920Z,671.87
2023-01-08T23:56:48.014Z,693.29
2023-01-08T23:59:54.162Z,711.60
